sensor_id;sensor_type;location;lat;lon;timestamp;P1;durP1;ratioP1;P2;durP2;ratioP2
19032;SDS011;9649;51.042;13.804;2022-12-07T00:00:19;15.70;;;8.37;;
19032;SDS011;9649;51.042;13.804;2022-12-07T00:05:22;14.93;;;8.83;;
19032;SDS011;9649;51.042;13.804;2022-12-07T00:10:27;13.20;;;8.20;;
19032;SDS011;9649;51.042;13.804;2022-12-07T00:15:29;17.10;;;8.20;;
19032;SDS011;9649;51.042;13.804;2022-12-07T00:20:32;19.03;;;10.97;;
19032;SDS011;9649;51.042;13.804;2022-12-07T00:25:36;13.40;;;8.17;;
19032;SDS011;9649;51.042;13.804;2022-12-07T00:30:39;17.80;;;8.27;;
19032;SDS011;9649;51.042;13.804;2022-12-07T00:35:42;14.07;;;8.23;;
19032;SDS011;9649;51.042;13.804;2022-12-07T00:40:54;15.47;;;8.50;;
19032;SDS011;9649;51.042;13.804;2022-12-07T00:46:00;13.23;;;8.07;;
19032;SDS011;9649;51.042;13.804;2022-12-07T00:51:03;13.33;;;7.90;;
19032;SDS011;9649;51.042;13.804;2022-12-07T00:56:08;14.10;;;8.50;;
19032;SDS011;9649;51.042;13.804;2022-12-07T01:01:13;15.50;;;8.10;;
19032;SDS011;9649;51.042;13.804;2022-12-07T01:06:17;14.13;;;7.87;;
19032;SDS011;9649;51.042;13.804;2022-12-07T01:11:22;17.20;;;8.70;;
19032;SDS011;9649;51.042;13.804;2022-12-07T01:16:27;17.43;;;9.23;;
19032;SDS011;9649;51.042;13.804;2022-12-07T01:21:33;15.37;;;8.63;;
19032;SDS011;9649;51.042;13.804;2022-12-07T01:26:42;15.90;;;8.93;;
19032;SDS011;9649;51.042;13.804;2022-12-07T01:31:53;19.43;;;9.87;;
19032;SDS011;9649;51.042;13.804;2022-12-07T01:37:40;17.23;;;9.77;;
19032;SDS011;9649;51.042;13.804;2022-12-07T01:56:03;15.90;;;9.30;;
19032;SDS011;9649;51.042;13.804;2022-12-07T02:01:50;16.13;;;9.33;;
19032;SDS011;9649;51.042;13.804;2022-12-07T02:07:34;16.03;;;8.37;;
19032;SDS011;9649;51.042;13.804;2022-12-07T02:18:54;15.63;;;8.33;;
19032;SDS011;9649;51.042;13.804;2022-12-07T02:24:50;14.07;;;7.53;;
19032;SDS011;9649;51.042;13.804;2022-12-07T02:36:33;12.33;;;7.03;;
19032;SDS011;9649;51.042;13.804;2022-12-07T02:42:09;11.90;;;6.73;;
19032;SDS011;9649;51.042;13.804;2022-12-07T02:47:49;11.33;;;7.00;;
19032;SDS011;9649;51.042;13.804;2022-12-07T02:59:22;15.63;;;7.13;;
19032;SDS011;9649;51.042;13.804;2022-12-07T03:05:12;12.40;;;6.80;;
19032;SDS011;9649;51.042;13.804;2022-12-07T03:10:56;12.97;;;7.60;;
19032;SDS011;9649;51.042;13.804;2022-12-07T03:16:35;13.03;;;7.30;;
19032;SDS011;9649;51.042;13.804;2022-12-07T03:22:22;12.43;;;7.07;;
19032;SDS011;9649;51.042;13.804;2022-12-07T03:28:04;13.50;;;7.70;;
19032;SDS011;9649;51.042;13.804;2022-12-07T03:33:58;12.37;;;8.17;;
19032;SDS011;9649;51.042;13.804;2022-12-07T03:39:39;15.80;;;9.33;;
19032;SDS011;9649;51.042;13.804;2022-12-07T03:45:31;16.67;;;9.83;;
19032;SDS011;9649;51.042;13.804;2022-12-07T03:51:09;15.97;;;9.63;;
19032;SDS011;9649;51.042;13.804;2022-12-07T03:57:15;18.60;;;10.23;;
19032;SDS011;9649;51.042;13.804;2022-12-07T04:02:35;18.10;;;9.97;;
19032;SDS011;9649;51.042;13.804;2022-12-07T04:07:57;17.23;;;9.60;;
19032;SDS011;9649;51.042;13.804;2022-12-07T04:13:31;17.17;;;9.57;;
19032;SDS011;9649;51.042;13.804;2022-12-07T04:19:03;16.47;;;10.00;;
19032;SDS011;9649;51.042;13.804;2022-12-07T04:24:32;15.73;;;9.37;;
19032;SDS011;9649;51.042;13.804;2022-12-07T04:35:52;16.67;;;9.40;;
19032;SDS011;9649;51.042;13.804;2022-12-07T04:41:41;15.27;;;8.83;;
19032;SDS011;9649;51.042;13.804;2022-12-07T04:47:21;18.20;;;9.13;;
19032;SDS011;9649;51.042;13.804;2022-12-07T04:52:52;15.37;;;9.03;;
19032;SDS011;9649;51.042;13.804;2022-12-07T04:58:13;18.73;;;9.30;;
19032;SDS011;9649;51.042;13.804;2022-12-07T05:03:42;17.90;;;9.60;;
19032;SDS011;9649;51.042;13.804;2022-12-07T05:09:14;17.67;;;9.60;;
19032;SDS011;9649;51.042;13.804;2022-12-07T05:14:38;17.67;;;9.63;;
19032;SDS011;9649;51.042;13.804;2022-12-07T05:20:01;15.43;;;9.33;;
19032;SDS011;9649;51.042;13.804;2022-12-07T05:25:24;17.47;;;9.37;;
19032;SDS011;9649;51.042;13.804;2022-12-07T05:30:44;17.40;;;9.17;;
19032;SDS011;9649;51.042;13.804;2022-12-07T05:42:02;13.77;;;7.83;;
19032;SDS011;9649;51.042;13.804;2022-12-07T05:47:59;13.57;;;7.50;;
19032;SDS011;9649;51.042;13.804;2022-12-07T05:53:23;13.00;;;7.53;;
19032;SDS011;9649;51.042;13.804;2022-12-07T05:58:52;13.50;;;7.67;;
19032;SDS011;9649;51.042;13.804;2022-12-07T06:04:32;14.97;;;7.53;;
19032;SDS011;9649;51.042;13.804;2022-12-07T06:09:52;16.10;;;8.00;;
19032;SDS011;9649;51.042;13.804;2022-12-07T06:14:57;14.57;;;7.97;;
19032;SDS011;9649;51.042;13.804;2022-12-07T06:20:03;13.93;;;8.23;;
19032;SDS011;9649;51.042;13.804;2022-12-07T06:25:31;13.07;;;7.93;;
19032;SDS011;9649;51.042;13.804;2022-12-07T06:30:44;13.17;;;6.53;;
19032;SDS011;9649;51.042;13.804;2022-12-07T06:35:47;11.77;;;5.60;;
19032;SDS011;9649;51.042;13.804;2022-12-07T06:40:51;7.20;;;5.03;;
19032;SDS011;9649;51.042;13.804;2022-12-07T06:45:54;7.13;;;4.13;;
19032;SDS011;9649;51.042;13.804;2022-12-07T06:50:57;8.90;;;4.27;;
19032;SDS011;9649;51.042;13.804;2022-12-07T06:56:01;6.23;;;4.10;;
19032;SDS011;9649;51.042;13.804;2022-12-07T07:01:08;7.10;;;4.53;;
19032;SDS011;9649;51.042;13.804;2022-12-07T07:06:12;6.03;;;3.87;;
19032;SDS011;9649;51.042;13.804;2022-12-07T07:11:17;6.97;;;4.00;;
19032;SDS011;9649;51.042;13.804;2022-12-07T07:16:19;7.90;;;4.07;;
19032;SDS011;9649;51.042;13.804;2022-12-07T07:21:22;6.47;;;4.57;;
19032;SDS011;9649;51.042;13.804;2022-12-07T07:31:31;7.40;;;4.93;;
19032;SDS011;9649;51.042;13.804;2022-12-07T07:36:36;13.80;;;6.93;;
19032;SDS011;9649;51.042;13.804;2022-12-07T07:41:39;11.43;;;6.53;;
19032;SDS011;9649;51.042;13.804;2022-12-07T07:46:43;10.13;;;5.57;;
19032;SDS011;9649;51.042;13.804;2022-12-07T07:51:46;10.60;;;6.23;;
19032;SDS011;9649;51.042;13.804;2022-12-07T07:56:48;8.43;;;5.33;;
19032;SDS011;9649;51.042;13.804;2022-12-07T08:01:52;10.13;;;6.00;;
19032;SDS011;9649;51.042;13.804;2022-12-07T08:06:56;10.97;;;6.83;;
19032;SDS011;9649;51.042;13.804;2022-12-07T08:11:59;10.33;;;6.80;;
19032;SDS011;9649;51.042;13.804;2022-12-07T08:17:03;9.33;;;6.63;;
19032;SDS011;9649;51.042;13.804;2022-12-07T08:22:06;10.60;;;6.90;;
19032;SDS011;9649;51.042;13.804;2022-12-07T08:27:08;11.27;;;6.67;;
19032;SDS011;9649;51.042;13.804;2022-12-07T08:32:13;12.70;;;6.43;;
19032;SDS011;9649;51.042;13.804;2022-12-07T08:37:15;11.17;;;6.90;;
19032;SDS011;9649;51.042;13.804;2022-12-07T08:42:18;14.00;;;6.37;;
19032;SDS011;9649;51.042;13.804;2022-12-07T08:47:24;11.43;;;6.20;;
19032;SDS011;9649;51.042;13.804;2022-12-07T08:52:27;10.97;;;5.93;;
19032;SDS011;9649;51.042;13.804;2022-12-07T08:57:31;10.57;;;5.43;;
19032;SDS011;9649;51.042;13.804;2022-12-07T09:02:38;8.03;;;5.20;;
19032;SDS011;9649;51.042;13.804;2022-12-07T09:07:41;7.57;;;4.97;;
19032;SDS011;9649;51.042;13.804;2022-12-07T09:12:45;9.73;;;5.27;;
19032;SDS011;9649;51.042;13.804;2022-12-07T09:17:49;9.43;;;4.93;;
19032;SDS011;9649;51.042;13.804;2022-12-07T09:22:53;9.87;;;5.57;;
19032;SDS011;9649;51.042;13.804;2022-12-07T09:27:56;8.67;;;5.10;;
19032;SDS011;9649;51.042;13.804;2022-12-07T09:33:01;7.53;;;4.60;;
19032;SDS011;9649;51.042;13.804;2022-12-07T09:38:04;6.63;;;4.27;;
19032;SDS011;9649;51.042;13.804;2022-12-07T09:43:10;6.10;;;4.33;;
19032;SDS011;9649;51.042;13.804;2022-12-07T09:48:17;7.67;;;4.40;;
19032;SDS011;9649;51.042;13.804;2022-12-07T09:53:24;7.37;;;4.07;;
19032;SDS011;9649;51.042;13.804;2022-12-07T09:58:29;6.30;;;3.80;;
19032;SDS011;9649;51.042;13.804;2022-12-07T10:03:35;6.87;;;3.93;;
19032;SDS011;9649;51.042;13.804;2022-12-07T10:08:40;7.67;;;3.70;;
19032;SDS011;9649;51.042;13.804;2022-12-07T10:13:45;7.43;;;3.60;;
19032;SDS011;9649;51.042;13.804;2022-12-07T10:18:51;6.47;;;3.20;;
19032;SDS011;9649;51.042;13.804;2022-12-07T10:24:01;8.10;;;3.90;;
19032;SDS011;9649;51.042;13.804;2022-12-07T10:29:13;6.03;;;3.17;;
19032;SDS011;9649;51.042;13.804;2022-12-07T10:34:22;9.25;;;3.20;;
19032;SDS011;9649;51.042;13.804;2022-12-07T10:39:26;10.95;;;4.43;;
19032;SDS011;9649;51.042;13.804;2022-12-07T10:44:30;6.93;;;3.73;;
19032;SDS011;9649;51.042;13.804;2022-12-07T10:49:48;7.13;;;3.60;;
19032;SDS011;9649;51.042;13.804;2022-12-07T10:55:16;10.77;;;4.13;;
19032;SDS011;9649;51.042;13.804;2022-12-07T11:00:25;7.37;;;3.97;;
19032;SDS011;9649;51.042;13.804;2022-12-07T11:05:35;8.03;;;4.10;;
19032;SDS011;9649;51.042;13.804;2022-12-07T11:10:48;8.47;;;4.07;;
19032;SDS011;9649;51.042;13.804;2022-12-07T11:16:01;8.20;;;4.30;;
19032;SDS011;9649;51.042;13.804;2022-12-07T11:21:12;12.70;;;4.23;;
19032;SDS011;9649;51.042;13.804;2022-12-07T11:26:25;8.53;;;4.17;;
19032;SDS011;9649;51.042;13.804;2022-12-07T11:31:56;9.97;;;4.23;;
19032;SDS011;9649;51.042;13.804;2022-12-07T11:37:09;7.80;;;3.70;;
19032;SDS011;9649;51.042;13.804;2022-12-07T11:42:16;9.90;;;4.17;;
19032;SDS011;9649;51.042;13.804;2022-12-07T11:47:25;5.70;;;3.83;;
19032;SDS011;9649;51.042;13.804;2022-12-07T11:52:41;9.53;;;5.20;;
19032;SDS011;9649;51.042;13.804;2022-12-07T11:57:48;9.23;;;4.97;;
19032;SDS011;9649;51.042;13.804;2022-12-07T12:03:01;9.67;;;5.87;;
19032;SDS011;9649;51.042;13.804;2022-12-07T12:08:13;11.13;;;5.37;;
19032;SDS011;9649;51.042;13.804;2022-12-07T12:13:47;11.23;;;5.50;;
19032;SDS011;9649;51.042;13.804;2022-12-07T12:19:25;13.50;;;5.80;;
19032;SDS011;9649;51.042;13.804;2022-12-07T12:24:36;12.53;;;5.57;;
19032;SDS011;9649;51.042;13.804;2022-12-07T12:29:41;16.47;;;6.20;;
19032;SDS011;9649;51.042;13.804;2022-12-07T12:34:59;13.70;;;5.80;;
19032;SDS011;9649;51.042;13.804;2022-12-07T12:40:27;9.47;;;5.60;;
19032;SDS011;9649;51.042;13.804;2022-12-07T12:45:51;10.47;;;5.67;;
19032;SDS011;9649;51.042;13.804;2022-12-07T12:51:36;7.93;;;3.07;;
19032;SDS011;9649;51.042;13.804;2022-12-07T12:56:42;6.80;;;2.50;;
19032;SDS011;9649;51.042;13.804;2022-12-07T13:01:53;5.57;;;1.80;;
19032;SDS011;9649;51.042;13.804;2022-12-07T13:06:58;2.00;;;1.40;;
19032;SDS011;9649;51.042;13.804;2022-12-07T13:12:03;4.93;;;1.90;;
19032;SDS011;9649;51.042;13.804;2022-12-07T13:17:24;3.17;;;1.23;;
19032;SDS011;9649;51.042;13.804;2022-12-07T13:22:56;1.43;;;1.30;;
19032;SDS011;9649;51.042;13.804;2022-12-07T13:28:02;4.03;;;1.60;;
19032;SDS011;9649;51.042;13.804;2022-12-07T13:33:11;2.87;;;1.80;;
19032;SDS011;9649;51.042;13.804;2022-12-07T13:38:19;5.13;;;2.00;;
19032;SDS011;9649;51.042;13.804;2022-12-07T13:43:27;3.23;;;2.43;;
19032;SDS011;9649;51.042;13.804;2022-12-07T13:48:30;4.50;;;2.90;;
19032;SDS011;9649;51.042;13.804;2022-12-07T13:53:36;7.37;;;3.57;;
19032;SDS011;9649;51.042;13.804;2022-12-07T13:58:48;8.80;;;3.80;;
19032;SDS011;9649;51.042;13.804;2022-12-07T14:03:51;6.83;;;3.57;;
19032;SDS011;9649;51.042;13.804;2022-12-07T14:09:08;6.93;;;4.17;;
19032;SDS011;9649;51.042;13.804;2022-12-07T14:14:21;5.67;;;3.70;;
19032;SDS011;9649;51.042;13.804;2022-12-07T14:19:44;7.87;;;3.80;;
19032;SDS011;9649;51.042;13.804;2022-12-07T14:24:59;8.40;;;4.17;;
19032;SDS011;9649;51.042;13.804;2022-12-07T14:30:04;8.13;;;4.50;;
19032;SDS011;9649;51.042;13.804;2022-12-07T14:35:09;8.40;;;4.53;;
19032;SDS011;9649;51.042;13.804;2022-12-07T14:40:16;10.77;;;5.50;;
19032;SDS011;9649;51.042;13.804;2022-12-07T14:45:20;9.43;;;4.60;;
19032;SDS011;9649;51.042;13.804;2022-12-07T14:50:24;11.90;;;5.23;;
19032;SDS011;9649;51.042;13.804;2022-12-07T14:55:29;10.30;;;5.40;;
19032;SDS011;9649;51.042;13.804;2022-12-07T15:00:32;10.47;;;5.13;;
19032;SDS011;9649;51.042;13.804;2022-12-07T15:05:36;9.63;;;5.20;;
19032;SDS011;9649;51.042;13.804;2022-12-07T15:10:40;9.63;;;5.47;;
19032;SDS011;9649;51.042;13.804;2022-12-07T15:15:43;11.30;;;5.23;;
19032;SDS011;9649;51.042;13.804;2022-12-07T15:20:46;7.17;;;3.47;;
19032;SDS011;9649;51.042;13.804;2022-12-07T15:25:51;8.70;;;3.50;;
19032;SDS011;9649;51.042;13.804;2022-12-07T15:30:54;8.73;;;3.03;;
19032;SDS011;9649;51.042;13.804;2022-12-07T15:35:58;9.20;;;2.80;;
19032;SDS011;9649;51.042;13.804;2022-12-07T15:41:03;8.70;;;2.57;;
19032;SDS011;9649;51.042;13.804;2022-12-07T15:46:06;7.73;;;3.20;;
19032;SDS011;9649;51.042;13.804;2022-12-07T15:51:09;6.03;;;2.40;;
19032;SDS011;9649;51.042;13.804;2022-12-07T15:56:13;5.63;;;2.33;;
19032;SDS011;9649;51.042;13.804;2022-12-07T16:01:16;4.40;;;2.80;;
19032;SDS011;9649;51.042;13.804;2022-12-07T16:06:20;4.40;;;2.10;;
19032;SDS011;9649;51.042;13.804;2022-12-07T16:11:24;6.97;;;3.47;;
19032;SDS011;9649;51.042;13.804;2022-12-07T16:16:28;8.50;;;4.60;;
19032;SDS011;9649;51.042;13.804;2022-12-07T16:21:31;7.37;;;3.80;;
19032;SDS011;9649;51.042;13.804;2022-12-07T16:26:35;7.67;;;3.73;;
19032;SDS011;9649;51.042;13.804;2022-12-07T16:31:39;10.63;;;4.40;;
19032;SDS011;9649;51.042;13.804;2022-12-07T16:36:42;9.10;;;5.20;;
19032;SDS011;9649;51.042;13.804;2022-12-07T16:42:06;10.00;;;4.77;;
19032;SDS011;9649;51.042;13.804;2022-12-07T16:47:09;9.00;;;5.43;;
19032;SDS011;9649;51.042;13.804;2022-12-07T16:52:12;7.90;;;4.20;;
19032;SDS011;9649;51.042;13.804;2022-12-07T16:57:22;9.80;;;3.63;;
19032;SDS011;9649;51.042;13.804;2022-12-07T17:02:25;10.33;;;4.37;;
19032;SDS011;9649;51.042;13.804;2022-12-07T17:07:27;6.53;;;3.33;;
19032;SDS011;9649;51.042;13.804;2022-12-07T17:12:32;10.53;;;4.20;;
19032;SDS011;9649;51.042;13.804;2022-12-07T17:17:34;12.63;;;6.33;;
19032;SDS011;9649;51.042;13.804;2022-12-07T17:22:37;12.93;;;5.50;;
19032;SDS011;9649;51.042;13.804;2022-12-07T17:27:42;9.33;;;4.47;;
19032;SDS011;9649;51.042;13.804;2022-12-07T17:32:45;14.83;;;7.67;;
19032;SDS011;9649;51.042;13.804;2022-12-07T17:37:48;9.13;;;3.20;;
19032;SDS011;9649;51.042;13.804;2022-12-07T17:42:52;8.27;;;2.43;;
19032;SDS011;9649;51.042;13.804;2022-12-07T17:47:55;7.20;;;2.27;;
19032;SDS011;9649;51.042;13.804;2022-12-07T17:52:58;8.10;;;2.97;;
19032;SDS011;9649;51.042;13.804;2022-12-07T17:58:14;6.27;;;2.53;;
19032;SDS011;9649;51.042;13.804;2022-12-07T18:03:17;5.93;;;2.77;;
19032;SDS011;9649;51.042;13.804;2022-12-07T18:08:20;7.27;;;2.53;;
19032;SDS011;9649;51.042;13.804;2022-12-07T18:13:24;6.80;;;3.00;;
19032;SDS011;9649;51.042;13.804;2022-12-07T18:18:39;11.73;;;3.10;;
19032;SDS011;9649;51.042;13.804;2022-12-07T18:23:49;7.20;;;2.67;;
19032;SDS011;9649;51.042;13.804;2022-12-07T18:28:54;4.53;;;2.80;;
19032;SDS011;9649;51.042;13.804;2022-12-07T18:33:59;4.73;;;2.60;;
19032;SDS011;9649;51.042;13.804;2022-12-07T18:39:05;7.80;;;2.70;;
19032;SDS011;9649;51.042;13.804;2022-12-07T18:44:09;6.70;;;2.50;;
19032;SDS011;9649;51.042;13.804;2022-12-07T18:49:14;5.90;;;2.70;;
19032;SDS011;9649;51.042;13.804;2022-12-07T18:54:17;7.43;;;2.40;;
19032;SDS011;9649;51.042;13.804;2022-12-07T18:59:21;7.77;;;1.77;;
19032;SDS011;9649;51.042;13.804;2022-12-07T19:04:41;5.20;;;2.07;;
19032;SDS011;9649;51.042;13.804;2022-12-07T19:09:44;4.90;;;1.97;;
19032;SDS011;9649;51.042;13.804;2022-12-07T19:14:48;6.70;;;2.03;;
19032;SDS011;9649;51.042;13.804;2022-12-07T19:19:51;5.07;;;1.70;;
19032;SDS011;9649;51.042;13.804;2022-12-07T19:24:54;4.57;;;1.73;;
19032;SDS011;9649;51.042;13.804;2022-12-07T19:48:45;6.30;;;3.10;;
19032;SDS011;9649;51.042;13.804;2022-12-07T19:54:57;7.00;;;2.77;;
19032;SDS011;9649;51.042;13.804;2022-12-07T20:00:39;8.97;;;2.90;;
19032;SDS011;9649;51.042;13.804;2022-12-07T20:06:40;6.40;;;3.83;;
19032;SDS011;9649;51.042;13.804;2022-12-07T20:13:06;7.00;;;3.10;;
19032;SDS011;9649;51.042;13.804;2022-12-07T20:19:17;5.30;;;2.80;;
19032;SDS011;9649;51.042;13.804;2022-12-07T20:25:35;6.97;;;3.30;;
19032;SDS011;9649;51.042;13.804;2022-12-07T20:30:44;7.67;;;3.00;;
19032;SDS011;9649;51.042;13.804;2022-12-07T20:36:17;10.87;;;3.03;;
19032;SDS011;9649;51.042;13.804;2022-12-07T20:42:02;10.40;;;3.40;;
19032;SDS011;9649;51.042;13.804;2022-12-07T21:06:08;7.07;;;2.87;;
19032;SDS011;9649;51.042;13.804;2022-12-07T21:11:40;8.77;;;3.43;;
19032;SDS011;9649;51.042;13.804;2022-12-07T21:16:48;6.87;;;2.70;;
19032;SDS011;9649;51.042;13.804;2022-12-07T21:22:19;9.50;;;3.17;;
19032;SDS011;9649;51.042;13.804;2022-12-07T21:27:27;5.50;;;2.97;;
19032;SDS011;9649;51.042;13.804;2022-12-07T21:44:57;12.80;;;4.00;;
19032;SDS011;9649;51.042;13.804;2022-12-07T21:50:38;10.03;;;3.27;;
19032;SDS011;9649;51.042;13.804;2022-12-07T21:56:07;6.93;;;3.47;;
19032;SDS011;9649;51.042;13.804;2022-12-07T22:37:05;7.67;;;3.03;;
19032;SDS011;9649;51.042;13.804;2022-12-07T23:49:08;7.30;;;2.90;;
